Time;durP1;ratioP1;P1;durP2;ratioP2;P2;SDS_P1;SDS_P2;PMS_P1;PMS_P2;Temp;Humidity;BMP_temperature;BMP_pressure;BME280_temperature;BME280_humidity;BME280_pressure;Samples;Min_cycle;Max_cycle;Signal;HPM_P1;HPM_P2
2021/11/11 00:01:09;;;;;;;25.98;12.88;;;1.20;92.30;;;;;;5097218;28;20469;-94
2021/11/11 00:03:35;;;;;;;23.05;11.50;;;1.20;92.40;;;;;;5097103;28;20028;-94
2021/11/11 00:06:00;;;;;;;19.55;10.90;;;1.30;92.60;;;;;;5096845;28;20024;-94
2021/11/11 00:08:26;;;;;;;20.70;11.05;;;1.20;92.50;;;;;;5098037;28;20024;-95
2021/11/11 00:10:52;;;;;;;19.77;10.77;;;1.20;92.70;;;;;;5097062;28;20076;-95
2021/11/11 00:13:21;;;;;;;17.05;9.20;;;1.10;92.40;;;;;;5096848;28;20028;-94
2021/11/11 00:15:48;;;;;;;19.40;9.27;;;1.10;92.50;;;;;;5096887;28;20025;-93
2021/11/11 00:18:14;;;;;;;19.42;10.40;;;1.10;92.40;;;;;;5096412;28;20084;-95
2021/11/11 00:20:41;;;;;;;21.33;9.90;;;1.10;92.40;;;;;;5096887;28;20024;-94
2021/11/11 00:23:07;;;;;;;20.25;9.18;;;1.00;92.50;;;;;;5096629;28;20497;-94
2021/11/11 00:25:33;;;;;;;16.70;8.70;;;1.00;92.70;;;;;;5096636;28;20024;-95
2021/11/11 00:27:59;;;;;;;15.57;8.43;;;1.00;92.70;;;;;;5096582;28;20024;-94
2021/11/11 00:30:26;;;;;;;16.38;9.35;;;1.00;92.70;;;;;;5096530;28;20023;-94
2021/11/11 00:32:52;;;;;;;17.25;9.10;;;1.00;92.70;;;;;;5096507;28;20031;-94
2021/11/11 00:35:26;;;;;;;16.73;9.52;;;1.00;92.80;;;;;;5096396;28;20031;-93
2021/11/11 00:37:53;;;;;;;19.38;9.27;;;1.00;92.80;;;;;;5096215;28;20035;-94
2021/11/11 00:40:19;;;;;;;26.05;11.25;;;1.00;92.90;;;;;;5096299;28;20028;-93
2021/11/11 00:42:48;;;;;;;27.00;11.48;;;1.00;92.90;;;;;;5096297;28;20028;-94
2021/11/11 00:45:14;;;;;;;24.63;11.35;;;1.00;93.10;;;;;;5096252;28;20501;-93
2021/11/11 00:47:42;;;;;;;39.25;15.90;;;0.90;93.10;;;;;;5096357;28;20024;-93
2021/11/11 00:50:10;;;;;;;39.45;16.40;;;0.80;93.00;;;;;;5095716;28;20386;-94
2021/11/11 00:52:35;;;;;;;38.22;16.05;;;0.90;93.10;;;;;;5095917;28;20048;-92
2021/11/11 00:55:03;;;;;;;34.85;15.27;;;0.80;93.20;;;;;;5096046;28;20512;-93
2021/11/11 00:57:29;;;;;;;36.05;14.98;;;0.80;93.30;;;;;;5095686;28;20055;-92
2021/11/11 00:59:56;;;;;;;37.15;14.02;;;0.80;93.30;;;;;;5095936;28;20454;-93
2021/11/11 01:02:22;;;;;;;32.55;14.10;;;0.80;93.40;;;;;;5095786;28;20020;-93
2021/11/11 01:04:47;;;;;;;32.95;13.65;;;0.70;93.50;;;;;;5095980;28;20028;-93
2021/11/11 01:07:13;;;;;;;32.28;12.90;;;0.70;93.50;;;;;;5095764;28;20434;-92
2021/11/11 01:09:39;;;;;;;27.95;12.35;;;0.70;93.40;;;;;;5095737;28;20035;-93
2021/11/11 01:12:08;;;;;;;28.70;11.88;;;0.70;93.90;;;;;;5095866;28;20187;-93
2021/11/11 01:14:34;;;;;;;25.58;9.65;;;0.60;93.80;;;;;;5095779;28;20024;-93
2021/11/11 01:17:00;;;;;;;18.25;9.57;;;0.70;93.90;;;;;;5095388;28;20054;-93
2021/11/11 01:19:26;;;;;;;20.52;9.82;;;0.70;93.80;;;;;;5095518;28;20025;-93
2021/11/11 01:21:53;;;;;;;18.02;9.13;;;0.60;93.90;;;;;;5095581;28;20024;-93
2021/11/11 01:24:19;;;;;;;19.00;9.20;;;0.60;94.00;;;;;;5095503;28;20020;-94
2021/11/11 01:26:45;;;;;;;15.07;8.05;;;0.60;94.10;;;;;;5095842;28;20118;-93
2021/11/11 01:29:11;;;;;;;16.70;8.35;;;0.50;94.10;;;;;;5095451;28;20115;-94
2021/11/11 01:31:37;;;;;;;16.38;8.45;;;0.60;94.40;;;;;;5095402;28;20115;-93
2021/11/11 01:34:03;;;;;;;21.73;9.00;;;0.50;94.30;;;;;;5095890;28;20028;-93
2021/11/11 01:36:29;;;;;;;15.93;9.00;;;0.50;94.40;;;;;;5095435;28;20024;-94
2021/11/11 01:38:55;;;;;;;21.83;9.80;;;0.50;94.50;;;;;;5095093;28;20077;-94
2021/11/11 01:41:20;;;;;;;22.63;10.85;;;0.50;94.60;;;;;;5095058;28;20024;-95
2021/11/11 01:43:46;;;;;;;27.00;11.10;;;0.50;94.60;;;;;;5094987;28;20016;-93
2021/11/11 01:46:12;;;;;;;22.77;9.68;;;0.50;94.60;;;;;;5095384;28;20020;-93
2021/11/11 01:48:38;;;;;;;15.82;8.48;;;0.40;94.90;;;;;;5095197;28;20024;-93
2021/11/11 01:51:04;;;;;;;12.30;7.88;;;0.40;95.10;;;;;;5095124;28;20027;-94
2021/11/11 01:53:31;;;;;;;16.88;8.68;;;0.50;95.10;;;;;;5094905;28;20020;-93
2021/11/11 01:55:57;;;;;;;18.77;8.68;;;0.40;95.40;;;;;;5078425;28;20039;-93
2021/11/11 01:58:23;;;;;;;13.68;7.90;;;0.40;95.40;;;;;;5074355;28;20029;-93
2021/11/11 02:00:56;;;;;;;15.63;8.75;;;0.40;95.50;;;;;;5073899;28;20021;-92
2021/11/11 02:03:22;;;;;;;13.48;7.53;;;0.40;95.60;;;;;;5074637;28;20047;-93
2021/11/11 02:05:48;;;;;;;11.93;6.85;;;0.40;95.60;;;;;;5074461;28;20466;-92
2021/11/11 02:08:14;;;;;;;13.07;7.47;;;0.30;95.80;;;;;;5092732;28;20028;-93
2021/11/11 02:10:40;;;;;;;13.88;7.28;;;0.30;95.90;;;;;;5094709;28;20031;-94
2021/11/11 02:13:07;;;;;;;12.85;7.55;;;0.30;96.10;;;;;;5094447;28;20028;-93
2021/11/11 02:15:34;;;;;;;10.82;6.60;;;0.30;96.20;;;;;;5078523;28;20028;-93
2021/11/11 02:18:00;;;;;;;18.58;7.43;;;0.20;96.20;;;;;;5073823;28;20037;-93
2021/11/11 02:20:32;;;;;;;17.88;7.45;;;0.30;96.30;;;;;;5074237;28;20090;-93
2021/11/11 02:23:00;;;;;;;16.88;7.38;;;0.30;96.40;;;;;;5074513;28;20016;-92
2021/11/11 02:25:28;;;;;;;20.98;8.38;;;0.30;96.40;;;;;;5074203;28;20093;-93
2021/11/11 02:28:46;;;;;;;14.60;7.65;;;0.30;96.50;;;;;;5091814;28;20035;-93
2021/11/11 02:31:12;;;;;;;13.68;7.68;;;0.30;96.60;;;;;;5094435;28;20024;-92
2021/11/11 02:33:38;;;;;;;15.60;8.02;;;0.20;96.70;;;;;;5091983;28;20028;-92
2021/11/11 02:36:04;;;;;;;14.40;7.03;;;0.20;97.00;;;;;;5073802;28;20032;-92
2021/11/11 02:38:29;;;;;;;15.77;7.93;;;0.20;97.00;;;;;;5073624;28;20074;-93
2021/11/11 02:40:56;;;;;;;13.50;6.68;;;0.20;97.10;;;;;;5073696;28;20021;-93
2021/11/11 02:43:22;;;;;;;21.27;7.78;;;0.10;97.20;;;;;;5074454;28;20443;-94
2021/11/11 02:45:49;;;;;;;21.77;9.25;;;0.20;97.40;;;;;;5075264;28;20027;-94
2021/11/11 02:48:18;;;;;;;23.63;10.20;;;0.20;97.70;;;;;;5093807;28;20038;-92
2021/11/11 02:50:44;;;;;;;15.73;7.80;;;0.20;97.40;;;;;;5094173;28;20028;-93
2021/11/11 02:53:11;;;;;;;15.98;7.60;;;0.20;97.50;;;;;;5094064;28;20516;-93
2021/11/11 02:55:36;;;;;;;16.60;8.68;;;0.30;97.50;;;;;;5094282;28;20024;-93
2021/11/11 02:58:03;;;;;;;16.50;8.15;;;0.30;97.50;;;;;;5094111;28;20028;-92
2021/11/11 03:00:38;;;;;;;12.82;6.88;;;0.20;97.50;;;;;;5092667;28;20077;-92
2021/11/11 03:03:03;;;;;;;13.20;7.20;;;0.30;97.80;;;;;;5093742;28;20020;-92
2021/11/11 03:05:31;;;;;;;13.13;7.50;;;0.30;97.90;;;;;;5093109;28;20028;-91
2021/11/11 03:07:57;;;;;;;19.17;8.77;;;0.30;97.90;;;;;;5093705;28;20038;-92
2021/11/11 03:10:26;;;;;;;23.05;10.40;;;0.30;97.90;;;;;;5091833;28;20028;-92
2021/11/11 03:12:53;;;;;;;19.80;9.32;;;0.30;98.00;;;;;;5093397;28;20052;-92
2021/11/11 03:15:19;;;;;;;21.73;10.02;;;0.30;98.00;;;;;;5092051;28;20051;-92
2021/11/11 03:17:46;;;;;;;17.73;9.30;;;0.30;98.10;;;;;;5093218;28;20062;-92
2021/11/11 03:20:14;;;;;;;18.65;8.90;;;0.20;98.10;;;;;;5093471;28;20032;-91
2021/11/11 03:22:43;;;;;;;15.45;8.48;;;0.20;98.20;;;;;;5093345;28;20024;-91
2021/11/11 03:25:15;;;;;;;13.82;7.75;;;0.20;98.30;;;;;;5093677;28;20020;-90
2021/11/11 03:27:41;;;;;;;12.65;6.70;;;0.10;98.40;;;;;;5073291;28;20075;-92
2021/11/11 03:30:10;;;;;;;13.70;8.00;;;0.10;98.40;;;;;;5079687;28;20029;-92
2021/11/11 03:32:36;;;;;;;15.63;7.72;;;0.10;98.40;;;;;;5092971;28;20024;-93
2021/11/11 03:35:03;;;;;;;16.48;8.18;;;0.10;98.40;;;;;;5093769;28;20028;-92
2021/11/11 03:37:29;;;;;;;13.07;7.10;;;0.10;98.60;;;;;;5093255;28;20031;-93
2021/11/11 03:39:55;;;;;;;12.40;6.53;;;0.10;98.60;;;;;;5093596;28;20106;-93
2021/11/11 03:42:20;;;;;;;12.48;7.40;;;0.10;98.70;;;;;;5093423;28;20024;-93
2021/11/11 03:44:46;;;;;;;12.23;7.18;;;0.10;98.70;;;;;;5093267;28;20021;-92
2021/11/11 03:47:12;;;;;;;14.00;7.35;;;0.10;98.70;;;;;;5073357;28;20363;-90
2021/11/11 03:49:38;;;;;;;13.75;7.25;;;0.10;98.90;;;;;;5072854;28;20142;-92
2021/11/11 03:52:05;;;;;;;14.20;8.00;;;0.10;98.90;;;;;;5073198;28;20580;-92
2021/11/11 03:54:30;;;;;;;18.77;9.25;;;0.00;98.80;;;;;;5075139;28;20024;-89
2021/11/11 03:56:58;;;;;;;18.73;9.30;;;0.00;99.00;;;;;;5093088;28;20031;-88
2021/11/11 03:59:24;;;;;;;19.88;8.32;;;0.00;99.30;;;;;;5093081;28;20028;-89
2021/11/11 04:01:50;;;;;;;22.67;9.90;;;0.00;99.10;;;;;;5081284;28;20024;-90
2021/11/11 04:04:17;;;;;;;18.23;8.95;;;0.00;99.20;;;;;;5090861;28;20523;-87
2021/11/11 04:06:42;;;;;;;14.07;7.32;;;0.00;99.10;;;;;;5088568;28;20084;-87
2021/11/11 04:09:08;;;;;;;12.45;6.82;;;0.00;99.20;;;;;;5094503;28;20048;-87
2021/11/11 04:11:34;;;;;;;10.70;6.75;;;0.00;99.10;;;;;;5092988;28;20027;-87
2021/11/11 04:14:01;;;;;;;16.67;8.15;;;0.00;99.10;;;;;;5092852;28;20028;-89
2021/11/11 04:16:27;;;;;;;15.13;7.47;;;0.00;99.30;;;;;;5092838;28;20032;-89
2021/11/11 04:18:53;;;;;;;12.43;7.32;;;0.00;99.70;;;;;;5080569;28;20028;-90
2021/11/11 04:21:20;;;;;;;15.73;8.32;;;0.00;99.50;;;;;;5110610;28;20169;-90
2021/11/11 04:23:48;;;;;;;15.10;7.28;;;-0.10;99.70;;;;;;5113232;28;20106;-91
2021/11/11 15:59:50;;;;;;;19.27;9.23;;;5.10;98.60;;;;;;5089256;28;20492;-90
2021/11/11 16:00:34;;;;;;;32.80;14.95;;;5.00;98.60;;;;;;5106306;28;20486;-89
2021/11/11 16:27:14;;;;;;;15.95;9.00;;;4.90;99.00;;;;;;5097697;28;20028;-88
2021/11/11 16:29:44;;;;;;;17.67;9.65;;;4.80;99.00;;;;;;5096448;28;20034;-90
2021/11/11 16:32:10;;;;;;;18.40;8.80;;;4.80;98.80;;;;;;5096118;28;20111;-88
2021/11/11 16:34:36;;;;;;;14.10;8.38;;;4.80;98.90;;;;;;5097429;28;20472;-88
2021/11/11 16:37:05;;;;;;;13.45;7.97;;;4.80;98.70;;;;;;5097134;28;20077;-88
2021/11/11 16:39:31;;;;;;;18.00;9.60;;;4.80;98.80;;;;;;5095988;28;20020;-88
2021/11/11 16:41:56;;;;;;;16.92;8.60;;;4.80;98.60;;;;;;5092259;28;20024;-88
2021/11/11 16:44:23;;;;;;;21.08;11.18;;;4.80;98.80;;;;;;5094200;28;20123;-89
2021/11/11 16:46:50;;;;;;;17.63;10.00;;;4.80;98.70;;;;;;5095869;28;20389;-89
2021/11/11 16:49:17;;;;;;;19.45;9.93;;;4.80;98.70;;;;;;5095608;28;20028;-88
2021/11/11 16:51:44;;;;;;;15.93;7.30;;;4.80;98.70;;;;;;5095722;28;20028;-88
2021/11/11 16:54:10;;;;;;;18.73;8.82;;;4.80;98.70;;;;;;5095718;28;20028;-88
2021/11/11 16:56:36;;;;;;;16.85;8.45;;;4.70;98.70;;;;;;5095612;28;20198;-89
2021/11/11 16:59:03;;;;;;;17.80;8.40;;;4.70;98.70;;;;;;5097033;28;20020;-88
2021/11/11 17:01:29;;;;;;;15.93;8.35;;;4.70;98.90;;;;;;5096216;28;20111;-88
2021/11/11 17:03:55;;;;;;;14.43;8.27;;;4.70;98.90;;;;;;5107179;28;20051;-90
2021/11/11 17:06:21;;;;;;;18.92;8.98;;;4.70;99.00;;;;;;5094056;28;20060;-89
2021/11/11 17:08:47;;;;;;;18.13;8.85;;;4.60;99.10;;;;;;5095405;28;20070;-89
2021/11/11 17:11:14;;;;;;;16.20;8.65;;;4.60;99.20;;;;;;5095558;28;20027;-87
2021/11/11 17:13:43;;;;;;;16.33;8.90;;;4.70;99.30;;;;;;5094907;28;20139;-89
2021/11/11 17:16:16;;;;;;;21.83;9.82;;;4.70;99.30;;;;;;5075788;28;20119;-88
2021/11/11 17:18:42;;;;;;;26.67;11.07;;;4.70;99.40;;;;;;5075203;28;20047;-87
2021/11/11 17:21:13;;;;;;;23.00;11.13;;;4.60;99.40;;;;;;5076171;28;20497;-87
2021/11/11 17:24:03;;;;;;;35.38;16.92;;;4.60;99.50;;;;;;5085816;28;20031;-93
2021/11/11 17:28:52;;;;;;;19.40;10.05;;;4.60;99.70;;;;;;5087647;28;20021;-88
2021/11/11 17:31:18;;;;;;;20.92;9.75;;;4.60;99.70;;;;;;5090389;28;20385;-90
2021/11/11 17:33:44;;;;;;;20.08;10.40;;;4.60;99.90;;;;;;5094661;28;20075;-89
2021/11/11 17:36:12;;;;;;;21.05;11.20;;;4.60;99.90;;;;;;5093882;28;20036;-88
2021/11/11 17:38:40;;;;;;;22.33;11.82;;;4.60;99.90;;;;;;5094511;28;20028;-89
2021/11/11 17:41:07;;;;;;;19.98;11.88;;;4.60;99.90;;;;;;5094383;28;20020;-92
2021/11/11 17:43:36;;;;;;;20.98;11.95;;;4.60;99.90;;;;;;5078075;28;20020;-88
2021/11/11 17:46:24;;;;;;;19.42;10.63;;;4.60;99.90;;;;;;5075447;28;20100;-89
2021/11/11 17:48:54;;;;;;;19.77;11.48;;;4.60;99.90;;;;;;5083161;28;20024;-90
2021/11/11 17:54:02;;;;;;;23.88;14.55;;;4.60;99.90;;;;;;5095245;28;20046;-88
2021/11/11 17:56:28;;;;;;;23.52;12.50;;;4.60;99.90;;;;;;5095452;28;20058;-90
2021/11/11 17:58:57;;;;;;;24.00;12.30;;;4.60;99.90;;;;;;5091561;28;20059;-88
2021/11/11 18:01:25;;;;;;;22.38;12.20;;;4.60;99.90;;;;;;5074095;28;20478;-88
2021/11/11 18:03:54;;;;;;;27.30;12.95;;;4.60;99.90;;;;;;5074267;28;20027;-89
2021/11/11 18:06:33;;;;;;;25.90;13.45;;;4.60;99.90;;;;;;5074107;28;20028;-89
2021/11/11 18:09:02;;;;;;;26.63;13.77;;;4.60;99.90;;;;;;5074059;28;20056;-89
2021/11/11 18:11:32;;;;;;;25.60;14.05;;;4.60;99.90;;;;;;5074224;28;20032;-88
2021/11/11 18:14:00;;;;;;;24.53;13.73;;;4.60;99.90;;;;;;5090502;28;20059;-89
2021/11/11 18:16:30;;;;;;;31.08;15.88;;;4.60;99.90;;;;;;5092423;28;20314;-93
2021/11/11 18:18:58;;;;;;;28.90;14.80;;;4.50;99.90;;;;;;5094227;28;20020;-91
2021/11/11 18:21:26;;;;;;;33.03;14.90;;;4.50;99.90;;;;;;5094158;28;20043;-93
2021/11/11 18:23:53;;;;;;;32.22;16.05;;;4.50;99.90;;;;;;5094266;28;20024;-89
2021/11/11 18:26:19;;;;;;;31.33;16.40;;;4.40;99.90;;;;;;5086654;28;20029;-93
2021/11/11 18:28:56;;;;;;;27.42;14.25;;;4.40;99.90;;;;;;5076191;28;20506;-91
2021/11/11 18:34:18;;;;;;;32.53;15.93;;;4.30;99.90;;;;;;5095141;28;20020;-91
2021/11/11 18:36:46;;;;;;;28.50;15.57;;;4.30;99.90;;;;;;5093987;28;20023;-92
2021/11/11 18:39:16;;;;;;;26.25;14.05;;;4.30;99.90;;;;;;5093882;28;20020;-92
2021/11/11 18:41:43;;;;;;;25.80;15.17;;;4.20;99.90;;;;;;5082307;28;20036;-91
2021/11/11 18:44:10;;;;;;;24.23;14.13;;;4.20;99.90;;;;;;5091557;28;20304;-92
2021/11/11 18:46:55;;;;;;;25.83;13.93;;;4.30;99.90;;;;;;5093739;28;20466;-90
2021/11/11 18:49:20;;;;;;;25.98;16.05;;;4.20;99.90;;;;;;5093350;28;20024;-92
2021/11/11 18:51:46;;;;;;;29.00;14.55;;;4.20;99.90;;;;;;5088501;28;20028;-92
2021/11/11 18:54:12;;;;;;;22.05;13.27;;;4.20;99.90;;;;;;5073411;28;20120;-91
2021/11/11 18:56:39;;;;;;;27.77;14.65;;;4.20;99.90;;;;;;5073283;28;20074;-92
2021/11/11 18:59:07;;;;;;;24.67;13.70;;;4.20;99.90;;;;;;5073419;28;20074;-92
2021/11/11 19:01:34;;;;;;;29.45;15.95;;;4.20;99.90;;;;;;5073226;28;20119;-93
2021/11/11 19:04:04;;;;;;;26.13;13.65;;;4.10;99.90;;;;;;5073636;28;20086;-90
2021/11/11 19:06:43;;;;;;;27.25;15.35;;;4.20;99.90;;;;;;5091634;28;20355;-92
2021/11/11 19:11:42;;;;;;;20.90;13.05;;;4.10;99.90;;;;;;5094543;28;20020;-92
2021/11/11 19:14:10;;;;;;;25.23;13.93;;;4.10;99.90;;;;;;5083511;28;20140;-92
2021/11/11 19:16:45;;;;;;;29.25;14.90;;;4.00;99.90;;;;;;5073407;28;20442;-93
2021/11/11 19:19:16;;;;;;;30.35;15.30;;;4.00;99.90;;;;;;5073192;28;20024;-91
2021/11/11 19:21:42;;;;;;;32.92;15.90;;;4.00;99.90;;;;;;5073181;28;20031;-91
2021/11/11 19:24:08;;;;;;;28.73;15.48;;;4.00;99.90;;;;;;5073104;28;20024;-92
2021/11/11 19:26:35;;;;;;;24.20;13.45;;;4.00;99.90;;;;;;5073110;28;20035;-91
2021/11/11 19:29:02;;;;;;;24.77;14.15;;;4.00;99.90;;;;;;5073252;28;20027;-92
2021/11/11 19:31:28;;;;;;;27.98;15.27;;;3.90;99.90;;;;;;5084285;28;20374;-92
2021/11/11 19:34:12;;;;;;;40.13;18.23;;;3.90;99.90;;;;;;5093229;28;20024;-93
2021/11/11 19:54:44;;;;;;;27.48;14.30;;;3.80;99.90;;;;;;5074453;28;20021;-91
2021/11/11 20:08:16;;;;;;;25.20;14.15;;;3.70;99.90;;;;;;5097985;28;20480;-91
2021/11/11 20:10:48;;;;;;;46.03;18.73;;;3.70;99.90;;;;;;5097739;28;20055;-89
2021/11/11 20:16:19;;;;;;;27.48;16.02;;;3.70;99.90;;;;;;5090814;28;20043;-92
2021/11/11 20:43:12;;;;;;;22.33;12.85;;;3.50;99.90;;;;;;5097831;28;20643;-91
2021/11/11 20:48:50;;;;;;;30.33;14.32;;;3.50;99.90;;;;;;5097495;28;20409;-93
2021/11/11 21:01:25;;;;;;;28.73;14.15;;;3.50;99.90;;;;;;5085788;28;20433;-90
2021/11/11 21:04:12;;;;;;;23.23;13.57;;;3.50;99.90;;;;;;5075389;28;20033;-92
2021/11/11 21:06:48;;;;;;;24.10;12.75;;;3.50;99.90;;;;;;5076097;28;20098;-92
2021/11/11 21:11:59;;;;;;;29.98;13.48;;;3.50;99.90;;;;;;5076683;28;20071;-91
2021/11/11 21:19:51;;;;;;;25.88;14.25;;;3.50;99.90;;;;;;5079047;28;20032;-91
2021/11/11 21:22:18;;;;;;;29.20;14.75;;;3.50;99.90;;;;;;5081182;28;20063;-89
2021/11/11 21:24:45;;;;;;;26.67;13.25;;;3.40;99.90;;;;;;5095117;28;20035;-92
2021/11/11 21:27:12;;;;;;;23.50;13.00;;;3.40;99.90;;;;;;5095260;28;20035;-91
2021/11/11 21:29:39;;;;;;;25.02;13.15;;;3.40;99.90;;;;;;5095119;28;20024;-89
2021/11/11 21:32:07;;;;;;;25.08;12.73;;;3.40;99.90;;;;;;5095247;28;20107;-91
2021/11/11 21:42:22;;;;;;;22.63;12.45;;;3.40;99.90;;;;;;5096001;28;20465;-91
2021/11/11 21:44:48;;;;;;;18.58;10.52;;;3.40;99.90;;;;;;5094732;28;20031;-92
2021/11/11 21:47:14;;;;;;;17.92;11.43;;;3.40;99.90;;;;;;5094757;28;20077;-92
2021/11/11 21:49:40;;;;;;;17.83;10.85;;;3.40;99.90;;;;;;5094561;28;20028;-92
2021/11/11 21:52:08;;;;;;;19.58;10.13;;;3.30;99.90;;;;;;5094601;28;20027;-91
2021/11/11 21:54:37;;;;;;;17.00;10.25;;;3.30;99.90;;;;;;5094687;28;20032;-90
2021/11/11 21:57:13;;;;;;;22.63;10.70;;;3.30;99.90;;;;;;5094784;28;20499;-89
2021/11/11 22:04:52;;;;;;;16.35;9.38;;;3.30;99.90;;;;;;5075618;28;20024;-90
2021/11/11 22:29:05;;;;;;;20.73;10.10;;;3.20;99.90;;;;;;5095398;28;20032;-90
2021/11/11 22:34:23;;;;;;;15.38;8.65;;;3.20;99.90;;;;;;5074840;28;20036;-92
2021/11/11 22:36:49;;;;;;;17.17;9.57;;;3.10;99.90;;;;;;5073571;28;20024;-89
2021/11/11 22:39:14;;;;;;;13.38;8.98;;;3.10;99.90;;;;;;5073710;28;20166;-89
2021/11/11 22:41:40;;;;;;;16.13;9.75;;;3.10;99.90;;;;;;5092025;28;20028;-89
2021/11/11 22:44:09;;;;;;;19.55;10.02;;;3.10;99.90;;;;;;5094114;28;20024;-89
2021/11/11 22:46:35;;;;;;;18.77;10.07;;;3.00;99.90;;;;;;5093839;28;20031;-90
2021/11/11 22:49:02;;;;;;;16.83;9.98;;;3.00;99.90;;;;;;5093776;28;20031;-89
2021/11/11 22:51:27;;;;;;;17.80;10.05;;;3.00;99.90;;;;;;5092978;28;20050;-90
2021/11/11 22:53:59;;;;;;;20.75;9.60;;;3.00;99.90;;;;;;5093485;28;20469;-89
2021/11/11 22:56:33;;;;;;;17.50;9.90;;;3.00;99.90;;;;;;5093752;28;20077;-90
2021/11/11 23:09:24;;;;;;;15.95;8.65;;;3.00;99.90;;;;;;5094918;28;20028;-91
2021/11/11 23:25:31;;;;;;;20.75;9.50;;;2.90;99.90;;;;;;5075189;28;20368;-90
2021/11/11 23:33:28;;;;;;;18.13;9.60;;;2.80;99.90;;;;;;5094553;28;20031;-89
2021/11/11 23:35:56;;;;;;;18.40;9.68;;;2.80;99.90;;;;;;5094526;28;20031;-89
2021/11/11 23:38:25;;;;;;;17.35;9.18;;;2.80;99.90;;;;;;5097368;28;20023;-89
2021/11/11 23:40:51;;;;;;;17.05;9.90;;;2.70;99.90;;;;;;5097132;28;20027;-90
2021/11/11 23:43:17;;;;;;;19.02;9.30;;;2.70;99.90;;;;;;5096625;28;20619;-88
2021/11/11 23:45:45;;;;;;;17.90;9.68;;;2.70;99.90;;;;;;5096962;28;20493;-90
2021/11/11 23:48:17;;;;;;;18.50;9.82;;;2.70;99.90;;;;;;5097310;28;20111;-89
